createdAt,value
2023-12-23T00:00:22.252Z,7.10
2023-12-23T00:02:54.025Z,7.10
2023-12-23T00:05:26.144Z,7.10
2023-12-23T00:07:58.311Z,7.10
2023-12-23T00:10:29.718Z,7.10
2023-12-23T00:13:01.580Z,7.10
2023-12-23T00:18:10.959Z,7.20
2023-12-23T00:20:42.946Z,7.30
2023-12-23T00:23:14.907Z,7.30
2023-12-23T00:25:46.802Z,7.40
2023-12-23T00:28:18.780Z,7.40
2023-12-23T00:30:50.565Z,7.40
2023-12-23T00:33:22.877Z,7.40
2023-12-23T00:35:54.723Z,7.40
2023-12-23T00:38:26.785Z,7.40
2023-12-23T00:40:58.977Z,7.40
2023-12-23T00:43:31.130Z,7.40
2023-12-23T00:46:03.513Z,7.40
2023-12-23T00:48:35.464Z,7.40
2023-12-23T00:51:07.957Z,7.50
2023-12-23T00:53:40.226Z,7.50
2023-12-23T00:56:12.106Z,7.50
2023-12-23T00:58:44.016Z,7.50
2023-12-23T01:01:17.649Z,7.50
2023-12-23T01:03:49.556Z,7.50
2023-12-23T01:06:21.377Z,7.50
2023-12-23T01:08:53.218Z,7.50
2023-12-23T01:11:25.160Z,7.50
2023-12-23T01:13:56.921Z,7.50
2023-12-23T01:16:28.517Z,7.40
2023-12-23T01:19:00.481Z,7.40
2023-12-23T01:21:32.280Z,7.40
2023-12-23T01:24:04.075Z,7.40
2023-12-23T01:26:35.822Z,7.40
2023-12-23T01:29:07.633Z,7.50
2023-12-23T01:31:39.524Z,7.50
2023-12-23T01:34:11.345Z,7.60
2023-12-23T01:36:43.160Z,7.60
2023-12-23T01:39:17.465Z,7.60
2023-12-23T01:41:49.340Z,7.50
2023-12-23T01:44:21.156Z,7.50
2023-12-23T01:46:54.290Z,7.50
2023-12-23T01:49:27.357Z,7.50
2023-12-23T01:52:00.547Z,7.50
2023-12-23T01:54:35.168Z,7.50
2023-12-23T01:57:07.406Z,7.50
2023-12-23T01:59:39.245Z,7.50
2023-12-23T02:02:12.451Z,7.50
2023-12-23T02:04:44.491Z,7.50
2023-12-23T02:07:16.278Z,7.50
2023-12-23T02:09:48.066Z,7.50
2023-12-23T02:12:23.874Z,7.50
2023-12-23T02:15:00.034Z,7.40
2023-12-23T02:17:31.825Z,7.50
2023-12-23T02:20:03.973Z,7.40
2023-12-23T02:22:35.862Z,7.40
2023-12-23T02:25:09.349Z,7.40
2023-12-23T02:27:44.531Z,7.40
2023-12-23T02:30:19.288Z,7.40
2023-12-23T02:32:51.919Z,7.40
2023-12-23T02:35:26.866Z,7.30
2023-12-23T02:37:58.698Z,7.30
2023-12-23T02:40:30.548Z,7.30
2023-12-23T02:43:11.660Z,7.30
2023-12-23T02:45:42.133Z,7.30
2023-12-23T02:48:13.778Z,7.30
2023-12-23T02:50:45.621Z,7.30
2023-12-23T02:53:17.413Z,7.30
2023-12-23T02:55:49.192Z,7.40
2023-12-23T02:58:21.217Z,7.40
2023-12-23T03:00:53.067Z,7.40
2023-12-23T03:03:24.862Z,7.40
2023-12-23T03:05:56.966Z,7.40
2023-12-23T03:08:28.763Z,7.40
2023-12-23T03:11:00.614Z,7.30
2023-12-23T03:13:32.512Z,7.30
2023-12-23T03:16:04.473Z,7.40
2023-12-23T03:18:38.659Z,7.40
2023-12-23T03:21:10.405Z,7.30
2023-12-23T03:23:42.312Z,7.30
2023-12-23T03:26:14.326Z,7.30
2023-12-23T03:28:46.420Z,7.40
2023-12-23T03:31:18.224Z,7.40
2023-12-23T03:33:50.186Z,7.40
2023-12-23T03:36:22.058Z,7.40
2023-12-23T03:38:53.942Z,7.40
2023-12-23T03:41:25.742Z,7.40
2023-12-23T03:43:57.602Z,7.30
2023-12-23T03:46:30.175Z,7.40
2023-12-23T03:49:02.032Z,7.40
2023-12-23T03:51:33.747Z,7.30
2023-12-23T03:54:05.955Z,7.40
2023-12-23T03:56:37.641Z,7.30
2023-12-23T03:59:09.420Z,7.30
2023-12-23T04:01:41.865Z,7.20
2023-12-23T04:04:13.654Z,7.30
2023-12-23T04:06:45.443Z,7.30
2023-12-23T04:09:19.687Z,7.20
2023-12-23T04:11:51.573Z,7.30
2023-12-23T04:14:23.399Z,7.20
2023-12-23T04:16:55.169Z,7.30
2023-12-23T04:19:27.575Z,7.30
2023-12-23T04:21:59.962Z,7.40
2023-12-23T04:24:31.716Z,7.30
2023-12-23T04:27:03.686Z,7.30
2023-12-23T04:29:35.465Z,7.30
2023-12-23T04:32:08.036Z,7.30
2023-12-23T04:34:41.532Z,7.30
2023-12-23T04:37:13.236Z,7.30
2023-12-23T04:39:45.264Z,7.30
2023-12-23T04:42:17.087Z,7.30
2023-12-23T04:44:48.912Z,7.30
2023-12-23T04:47:20.671Z,7.30
2023-12-23T04:49:52.619Z,7.40
2023-12-23T04:52:24.444Z,7.40
2023-12-23T04:54:56.223Z,7.40
2023-12-23T04:57:29.095Z,7.40
2023-12-23T05:00:01.025Z,7.30
2023-12-23T05:02:32.852Z,7.40
2023-12-23T05:05:04.905Z,7.40
2023-12-23T05:07:37.194Z,7.40
2023-12-23T05:10:10.657Z,7.40
2023-12-23T05:12:42.519Z,7.40
2023-12-23T05:15:14.490Z,7.40
2023-12-23T05:17:46.319Z,7.40
2023-12-23T05:20:18.640Z,7.50
2023-12-23T05:22:50.795Z,7.50
2023-12-23T05:25:22.944Z,7.50
2023-12-23T05:27:54.823Z,7.50
2023-12-23T05:30:26.731Z,7.50
2023-12-23T05:32:58.712Z,7.50
2023-12-23T05:35:30.978Z,7.50
2023-12-23T05:38:04.649Z,7.50
2023-12-23T05:40:36.366Z,7.50
2023-12-23T05:43:08.326Z,7.60
2023-12-23T05:45:40.107Z,7.50
2023-12-23T05:48:11.982Z,7.50
2023-12-23T05:50:43.817Z,7.50
2023-12-23T05:53:15.344Z,7.60
2023-12-23T05:55:47.564Z,7.50
2023-12-23T05:58:30.640Z,7.50
2023-12-23T06:01:03.111Z,7.50
2023-12-23T06:03:34.803Z,7.60
2023-12-23T06:06:07.543Z,7.50
2023-12-23T06:08:39.324Z,7.60
2023-12-23T06:11:12.838Z,7.50
2023-12-23T06:13:44.629Z,7.50
2023-12-23T06:16:16.541Z,7.50
2023-12-23T06:18:48.479Z,7.50
2023-12-23T06:21:22.278Z,7.60
2023-12-23T06:23:54.075Z,7.60
2023-12-23T06:26:26.284Z,7.60
2023-12-23T06:28:58.207Z,7.60
2023-12-23T06:31:29.914Z,7.60
2023-12-23T06:34:01.782Z,7.60
2023-12-23T06:36:34.043Z,7.70
2023-12-23T06:39:05.894Z,7.60
2023-12-23T06:41:37.549Z,7.60
2023-12-23T06:44:09.334Z,7.60
2023-12-23T06:46:41.106Z,7.60
2023-12-23T06:49:12.681Z,7.60
2023-12-23T06:51:44.497Z,7.70
2023-12-23T06:54:16.263Z,7.70
2023-12-23T06:56:48.031Z,7.70
2023-12-23T06:59:20.121Z,7.60
2023-12-23T07:01:52.455Z,7.70
2023-12-23T07:04:24.275Z,7.70
2023-12-23T07:06:56.667Z,7.70
2023-12-23T07:09:28.418Z,7.70
2023-12-23T07:12:00.198Z,7.70
2023-12-23T07:14:32.307Z,7.70
2023-12-23T07:17:04.088Z,7.70
2023-12-23T07:19:38.335Z,7.80
2023-12-23T07:22:09.055Z,7.80
2023-12-23T07:24:42.899Z,7.80
2023-12-23T07:27:14.769Z,7.80
2023-12-23T07:29:48.186Z,7.80
2023-12-23T07:32:20.235Z,7.90
2023-12-23T07:34:52.001Z,7.80
2023-12-23T07:37:23.829Z,7.80
2023-12-23T07:39:55.591Z,7.80
2023-12-23T07:42:27.318Z,7.80
2023-12-23T07:44:59.118Z,7.80
2023-12-23T07:47:31.600Z,7.80
2023-12-23T07:50:05.187Z,7.80
2023-12-23T07:52:37.065Z,7.80
2023-12-23T07:56:22.090Z,7.80
2023-12-23T07:58:53.931Z,7.90
2023-12-23T08:01:25.808Z,7.80
2023-12-23T08:03:57.941Z,7.90
2023-12-23T08:06:29.838Z,7.90
2023-12-23T08:09:01.659Z,7.90
2023-12-23T08:11:35.277Z,7.90
2023-12-23T08:14:07.913Z,7.90
2023-12-23T08:16:39.656Z,7.90
2023-12-23T08:19:11.388Z,8.00
2023-12-23T08:21:43.340Z,7.90
2023-12-23T08:24:15.204Z,8.00
2023-12-23T08:26:47.463Z,8.00
2023-12-23T08:29:19.184Z,8.00
2023-12-23T08:31:51.073Z,8.00
2023-12-23T08:34:23.063Z,8.10
2023-12-23T08:36:55.300Z,8.10
2023-12-23T08:39:27.003Z,8.00
2023-12-23T08:41:58.801Z,8.10
2023-12-23T08:44:30.551Z,8.10
2023-12-23T08:47:02.426Z,8.20
2023-12-23T08:49:34.249Z,8.20
2023-12-23T08:52:06.468Z,8.20
2023-12-23T08:54:40.985Z,8.20
2023-12-23T08:57:11.506Z,8.20
2023-12-23T08:59:43.357Z,8.20
2023-12-23T09:02:15.209Z,8.20
2023-12-23T09:04:46.938Z,8.20
2023-12-23T09:07:18.723Z,8.20
2023-12-23T09:09:50.441Z,8.30
2023-12-23T09:12:22.240Z,8.30
2023-12-23T09:14:54.150Z,8.30
2023-12-23T09:17:26.064Z,8.30
2023-12-23T09:19:57.755Z,8.30
2023-12-23T09:22:29.465Z,8.30
2023-12-23T09:25:01.192Z,8.30
2023-12-23T09:27:33.233Z,8.30
2023-12-23T09:30:05.856Z,8.30
2023-12-23T09:32:38.499Z,8.40
2023-12-23T09:35:10.759Z,8.30
2023-12-23T09:37:42.697Z,8.40
2023-12-23T09:40:18.891Z,8.40
2023-12-23T09:42:52.499Z,8.40
2023-12-23T09:45:25.283Z,8.50
2023-12-23T09:47:57.643Z,8.50
2023-12-23T09:50:29.785Z,8.40
2023-12-23T09:53:02.696Z,8.50
2023-12-23T09:55:35.443Z,8.50
2023-12-23T09:58:07.767Z,8.50
2023-12-23T10:00:58.495Z,8.50
2023-12-23T10:03:30.865Z,8.60
2023-12-23T10:06:03.037Z,8.60
2023-12-23T10:08:35.160Z,8.70
2023-12-23T10:11:07.233Z,8.70
2023-12-23T10:13:39.247Z,8.80
2023-12-23T10:16:12.059Z,8.80
2023-12-23T10:18:44.330Z,8.80
2023-12-23T10:21:16.446Z,8.80
2023-12-23T10:23:48.379Z,8.90
2023-12-23T10:26:20.713Z,8.90
2023-12-23T10:28:55.407Z,9.00
2023-12-23T10:31:29.483Z,8.90
2023-12-23T10:34:04.290Z,8.90
2023-12-23T10:36:36.953Z,8.90
2023-12-23T10:39:11.933Z,9.00
2023-12-23T10:41:47.957Z,8.90
2023-12-23T10:44:20.471Z,8.90
2023-12-23T10:46:54.017Z,8.90
2023-12-23T10:49:27.747Z,8.90
2023-12-23T10:52:00.957Z,8.90
2023-12-23T10:54:35.652Z,8.90
2023-12-23T10:57:09.089Z,8.90
2023-12-23T10:59:40.858Z,8.80
2023-12-23T11:02:15.789Z,8.80
2023-12-23T11:04:50.414Z,8.80
2023-12-23T11:07:25.172Z,8.80
2023-12-23T11:10:02.368Z,8.80
2023-12-23T11:12:35.718Z,8.80
2023-12-23T11:15:09.488Z,8.90
2023-12-23T11:17:45.189Z,8.90
2023-12-23T11:20:51.662Z,9.00
2023-12-23T11:23:34.325Z,9.00
2023-12-23T11:26:07.038Z,9.00
2023-12-23T11:28:39.013Z,9.00
2023-12-23T11:31:12.309Z,9.10
2023-12-23T11:33:44.316Z,9.10
2023-12-23T11:36:16.095Z,9.20
2023-12-23T11:38:52.984Z,9.30
2023-12-23T11:41:25.224Z,9.30
2023-12-23T11:43:58.764Z,9.30
2023-12-23T11:46:31.422Z,9.40
2023-12-23T11:49:04.680Z,9.40
2023-12-23T11:51:36.565Z,9.30
2023-12-23T11:54:08.682Z,9.30
2023-12-23T11:56:40.460Z,9.30
2023-12-23T11:59:12.790Z,9.30
2023-12-23T12:01:44.872Z,9.30
2023-12-23T12:04:19.070Z,9.30
2023-12-23T12:06:50.979Z,9.30
2023-12-23T12:09:23.268Z,9.30
2023-12-23T12:11:55.327Z,9.30
2023-12-23T12:14:28.528Z,9.20
2023-12-23T12:17:00.568Z,9.30
2023-12-23T12:19:33.213Z,9.30
2023-12-23T12:22:05.943Z,9.30
2023-12-23T12:24:38.874Z,9.20
2023-12-23T12:27:11.611Z,9.20
2023-12-23T12:29:43.482Z,9.30
2023-12-23T12:32:15.441Z,9.30
2023-12-23T12:34:48.537Z,9.30
2023-12-23T12:37:23.007Z,9.30
2023-12-23T12:39:55.213Z,9.30
2023-12-23T12:42:28.756Z,9.30
2023-12-23T12:45:03.937Z,9.30
2023-12-23T12:47:41.346Z,9.30
2023-12-23T12:50:17.880Z,9.30
2023-12-23T12:52:57.932Z,9.30
2023-12-23T12:55:29.791Z,9.40
2023-12-23T12:58:02.313Z,9.40
2023-12-23T13:00:34.215Z,9.50
2023-12-23T13:03:06.823Z,9.50
2023-12-23T13:05:39.162Z,9.50
2023-12-23T13:08:11.093Z,9.50
2023-12-23T13:10:45.311Z,9.60
2023-12-23T13:13:17.856Z,9.60
2023-12-23T13:15:49.688Z,9.60
2023-12-23T13:18:21.509Z,9.60
2023-12-23T13:20:53.437Z,9.60
2023-12-23T13:23:25.157Z,9.60
2023-12-23T13:25:56.895Z,9.60
2023-12-23T13:28:29.086Z,9.60
2023-12-23T13:31:00.883Z,9.60
2023-12-23T13:33:32.615Z,9.60
2023-12-23T13:36:08.423Z,9.50
2023-12-23T13:38:40.082Z,9.60
2023-12-23T13:41:13.508Z,9.60
2023-12-23T13:43:45.349Z,9.60
2023-12-23T13:46:17.314Z,9.60
2023-12-23T13:48:49.464Z,9.60
2023-12-23T13:51:21.782Z,9.70
2023-12-23T13:53:53.583Z,9.70
2023-12-23T13:56:25.392Z,9.70
2023-12-23T13:58:57.157Z,9.70
2023-12-23T14:01:28.990Z,9.70
2023-12-23T14:04:00.781Z,9.60
2023-12-23T14:06:32.743Z,9.70
2023-12-23T14:09:06.047Z,9.70
2023-12-23T14:11:37.820Z,9.60
2023-12-23T14:14:09.706Z,9.60
2023-12-23T14:16:41.585Z,9.60
2023-12-23T14:19:13.367Z,9.60
2023-12-23T14:21:45.365Z,9.60
2023-12-23T14:24:17.137Z,9.60
2023-12-23T14:26:48.888Z,9.50
2023-12-23T14:29:23.296Z,9.50
2023-12-23T14:31:55.008Z,9.50
2023-12-23T14:34:26.887Z,9.50
2023-12-23T14:36:58.634Z,9.50
2023-12-23T14:39:30.449Z,9.50
2023-12-23T14:42:02.184Z,9.50
2023-12-23T14:44:33.959Z,9.40
2023-12-23T14:47:07.167Z,9.50
2023-12-23T14:49:39.022Z,9.50
2023-12-23T14:52:10.926Z,9.50
2023-12-23T14:54:43.691Z,9.50
2023-12-23T14:57:15.449Z,9.50
2023-12-23T14:59:47.305Z,9.50
2023-12-23T15:02:19.827Z,9.40
2023-12-23T15:04:51.995Z,9.50
2023-12-23T15:07:26.636Z,9.50
2023-12-23T15:09:57.305Z,9.50
2023-12-23T15:12:29.109Z,9.50
2023-12-23T15:15:01.002Z,9.50
2023-12-23T15:17:33.011Z,9.50
2023-12-23T15:20:06.700Z,9.40
2023-12-23T15:22:38.410Z,9.40
2023-12-23T15:27:08.495Z,9.40
2023-12-23T15:29:40.226Z,9.30
2023-12-23T15:32:12.083Z,9.30
2023-12-23T15:34:43.899Z,9.20
2023-12-23T15:37:15.503Z,9.20
2023-12-23T15:39:47.349Z,9.20
2023-12-23T15:42:19.083Z,9.20
2023-12-23T15:44:50.819Z,9.20
2023-12-23T15:47:24.708Z,9.30
2023-12-23T15:49:56.313Z,9.30
2023-12-23T15:52:28.706Z,9.30
2023-12-23T15:55:00.422Z,9.20
2023-12-23T15:57:32.094Z,9.20
2023-12-23T16:00:03.946Z,9.20
2023-12-23T16:02:35.652Z,9.20
2023-12-23T16:05:09.381Z,9.20
2023-12-23T16:07:41.247Z,9.20
2023-12-23T16:10:13.246Z,9.10
2023-12-23T16:12:44.991Z,9.10
2023-12-23T16:15:17.882Z,9.10
2023-12-23T16:17:49.777Z,9.10
2023-12-23T16:20:21.809Z,9.00
2023-12-23T16:22:53.920Z,9.00
2023-12-23T16:26:31.389Z,9.00
2023-12-23T16:29:03.125Z,9.00
2023-12-23T16:31:36.040Z,8.90
2023-12-23T16:34:08.273Z,9.00
2023-12-23T16:36:39.973Z,8.90
2023-12-23T16:39:12.368Z,8.90
2023-12-23T16:41:44.136Z,8.90
2023-12-23T16:44:15.989Z,8.90
2023-12-23T16:46:47.920Z,8.90
2023-12-23T16:49:19.765Z,8.90
2023-12-23T16:51:52.999Z,8.80
2023-12-23T16:54:24.772Z,8.80
2023-12-23T16:56:56.539Z,8.70
2023-12-23T16:59:28.259Z,8.70
2023-12-23T17:01:59.944Z,8.70
2023-12-23T17:04:31.649Z,8.70
2023-12-23T17:07:03.627Z,8.70
2023-12-23T17:09:35.564Z,8.60
2023-12-23T17:12:08.585Z,8.60
2023-12-23T17:14:40.805Z,8.50
2023-12-23T17:17:12.687Z,8.50
2023-12-23T17:19:44.401Z,8.60
2023-12-23T17:22:16.267Z,8.60
2023-12-23T17:24:48.026Z,8.50
2023-12-23T17:27:20.198Z,8.50
2023-12-23T17:29:52.791Z,8.50
2023-12-23T17:32:26.314Z,8.40
2023-12-23T17:34:58.634Z,8.50
2023-12-23T17:37:30.461Z,8.50
2023-12-23T17:40:02.359Z,8.40
2023-12-23T17:42:34.095Z,8.40
2023-12-23T17:45:06.954Z,8.30
2023-12-23T17:47:38.775Z,8.30
2023-12-23T17:50:13.440Z,8.20
2023-12-23T17:52:45.215Z,8.30
2023-12-23T17:55:17.219Z,8.20
2023-12-23T17:57:49.181Z,8.20
2023-12-23T18:00:23.579Z,8.20
2023-12-23T18:02:55.682Z,8.10
2023-12-23T18:05:28.054Z,8.10
2023-12-23T18:07:59.965Z,8.10
2023-12-23T18:10:31.695Z,8.10
2023-12-23T18:13:05.661Z,8.00
2023-12-23T18:15:37.498Z,8.00
2023-12-23T18:18:28.055Z,8.00
2023-12-23T18:20:59.890Z,8.00
2023-12-23T18:23:31.639Z,8.00
2023-12-23T18:26:03.664Z,7.90
2023-12-23T18:28:35.501Z,7.90
2023-12-23T18:31:08.599Z,8.00
2023-12-23T18:33:40.412Z,8.00
2023-12-23T18:36:12.584Z,8.00
2023-12-23T18:38:44.376Z,8.00
2023-12-23T18:41:16.320Z,8.00
2023-12-23T18:43:48.017Z,7.90
2023-12-23T18:46:19.810Z,7.90
2023-12-23T18:48:51.882Z,7.90
2023-12-23T18:51:24.062Z,7.80
2023-12-23T18:53:56.759Z,7.80
2023-12-23T18:56:28.520Z,7.70
2023-12-23T18:59:02.001Z,7.70
2023-12-23T19:01:33.877Z,7.70
2023-12-23T19:04:07.585Z,7.80
2023-12-23T19:06:39.392Z,7.70
2023-12-23T19:09:11.208Z,7.70
2023-12-23T19:11:43.323Z,7.60
2023-12-23T19:14:15.102Z,7.50
2023-12-23T19:16:47.354Z,7.50
2023-12-23T19:19:19.250Z,7.50
2023-12-23T19:21:51.278Z,7.50
2023-12-23T19:24:22.962Z,7.50
2023-12-23T19:26:54.830Z,7.40
2023-12-23T19:29:26.628Z,7.50
2023-12-23T19:31:58.482Z,7.50
2023-12-23T19:34:30.320Z,7.40
2023-12-23T19:37:02.118Z,7.40
2023-12-23T19:39:33.930Z,7.40
2023-12-23T19:42:06.781Z,7.30
2023-12-23T19:44:38.631Z,7.30
2023-12-23T19:47:10.900Z,7.30
2023-12-23T19:49:44.261Z,7.30
2023-12-23T19:52:16.544Z,7.30
2023-12-23T19:54:48.672Z,7.20
2023-12-23T19:57:20.463Z,7.10
2023-12-23T19:59:52.327Z,7.10
2023-12-23T20:02:24.169Z,7.10
2023-12-23T20:04:55.821Z,7.10
2023-12-23T20:07:27.590Z,7.10
2023-12-23T20:09:59.523Z,7.00
2023-12-23T20:12:31.220Z,7.00
2023-12-23T20:15:04.291Z,7.10
2023-12-23T20:17:36.353Z,7.00
2023-12-23T20:20:10.420Z,7.00
2023-12-23T20:22:42.809Z,7.00
2023-12-23T20:25:14.720Z,7.00
2023-12-23T20:27:46.542Z,7.00
2023-12-23T20:30:19.282Z,7.10
2023-12-23T20:32:51.417Z,7.10
2023-12-23T20:35:23.672Z,7.10
2023-12-23T20:37:55.579Z,7.00
2023-12-23T20:40:27.312Z,7.00
2023-12-23T20:42:59.307Z,7.00
2023-12-23T20:45:31.099Z,7.10
2023-12-23T20:48:02.888Z,7.00
2023-12-23T20:50:35.356Z,7.00
2023-12-23T20:53:08.080Z,7.00
2023-12-23T20:55:40.054Z,7.00
2023-12-23T20:58:12.016Z,6.90
2023-12-23T21:00:44.733Z,6.90
2023-12-23T21:03:17.586Z,6.90
2023-12-23T21:05:49.453Z,6.80
2023-12-23T21:08:21.851Z,6.70
2023-12-23T21:10:53.844Z,6.70
2023-12-23T21:13:25.607Z,6.70
2023-12-23T21:15:57.389Z,6.70
2023-12-23T21:18:29.353Z,6.80
2023-12-23T21:21:01.190Z,6.80
2023-12-23T21:23:33.192Z,6.80
2023-12-23T21:26:05.305Z,6.70
2023-12-23T21:28:37.252Z,6.70
2023-12-23T21:31:09.088Z,6.70
2023-12-23T21:33:41.021Z,6.70
2023-12-23T21:36:13.019Z,6.80
2023-12-23T21:38:45.047Z,6.90
2023-12-23T21:41:16.920Z,6.80
2023-12-23T21:43:48.643Z,6.80
2023-12-23T21:46:20.798Z,6.80
2023-12-23T21:48:52.501Z,6.80
2023-12-23T21:51:24.292Z,6.80
2023-12-23T21:53:56.011Z,6.80
2023-12-23T21:56:27.772Z,6.80
2023-12-23T21:58:59.398Z,6.80
2023-12-23T22:01:31.174Z,6.80
2023-12-23T22:04:02.972Z,6.80
2023-12-23T22:06:34.826Z,6.80
2023-12-23T22:09:06.605Z,6.80
2023-12-23T22:11:38.947Z,6.80
2023-12-23T22:14:11.173Z,6.80
2023-12-23T22:16:42.938Z,6.80
2023-12-23T22:19:19.693Z,6.70
2023-12-23T22:21:51.915Z,6.70
2023-12-23T22:24:23.582Z,6.70
2023-12-23T22:26:55.421Z,6.80
2023-12-23T22:29:27.100Z,6.70
2023-12-23T22:31:58.942Z,6.70
2023-12-23T22:34:30.711Z,6.70
2023-12-23T22:37:06.208Z,6.70
2023-12-23T22:39:37.986Z,6.70
2023-12-23T22:42:09.839Z,6.80
2023-12-23T22:44:41.509Z,6.80
2023-12-23T22:47:13.326Z,6.80
2023-12-23T22:49:46.691Z,6.80
2023-12-23T22:52:19.551Z,6.70
2023-12-23T22:54:51.279Z,6.80
2023-12-23T22:57:23.292Z,6.70
2023-12-23T22:59:55.442Z,6.80
2023-12-23T23:02:27.735Z,6.70
2023-12-23T23:04:59.645Z,6.80
2023-12-23T23:07:31.575Z,6.80
2023-12-23T23:10:03.923Z,6.80
2023-12-23T23:12:35.872Z,6.80
2023-12-23T23:15:09.159Z,6.90
2023-12-23T23:17:41.439Z,6.90
2023-12-23T23:20:14.299Z,6.90
2023-12-23T23:22:46.191Z,6.90
2023-12-23T23:25:18.029Z,6.80
2023-12-23T23:30:26.848Z,6.70
2023-12-23T23:32:58.546Z,6.60
2023-12-23T23:35:30.684Z,6.60
2023-12-23T23:38:02.598Z,6.60
2023-12-23T23:40:34.330Z,6.50
2023-12-23T23:43:06.382Z,6.50
2023-12-23T23:45:38.206Z,6.60
2023-12-23T23:48:10.473Z,6.60
2023-12-23T23:50:42.499Z,6.60
2023-12-23T23:53:14.388Z,6.60
2023-12-23T23:55:46.392Z,6.70
2023-12-23T23:58:18.172Z,6.70
